createdAt,value
2023-03-06T00:00:22.364Z,999.82
2023-03-06T00:01:22.355Z,999.75
2023-03-06T00:02:22.370Z,999.80
2023-03-06T00:03:22.453Z,999.77
2023-03-06T00:04:22.343Z,999.80
2023-03-06T00:05:22.355Z,999.76
2023-03-06T00:06:23.482Z,999.71
2023-03-06T00:07:22.336Z,999.70
2023-03-06T00:08:22.307Z,999.69
2023-03-06T00:09:22.292Z,999.71
2023-03-06T00:10:22.324Z,999.70
2023-03-06T00:11:22.264Z,999.73
2023-03-06T00:12:22.245Z,999.60
2023-03-06T00:13:22.226Z,999.65
2023-03-06T00:14:22.248Z,999.63
2023-03-06T00:15:22.208Z,999.63
2023-03-06T00:16:22.244Z,999.63
2023-03-06T00:17:22.198Z,999.63
2023-03-06T00:18:22.219Z,999.62
2023-03-06T00:19:22.139Z,999.61
2023-03-06T00:20:22.269Z,999.60
2023-03-06T00:21:22.125Z,999.62
2023-03-06T00:22:22.087Z,999.62
2023-03-06T00:23:22.119Z,999.60
2023-03-06T00:24:22.060Z,999.62
2023-03-06T00:25:22.147Z,999.59
2023-03-06T00:26:22.059Z,999.62
2023-03-06T00:27:22.030Z,999.62
2023-03-06T00:28:22.053Z,999.62
2023-03-06T00:29:22.049Z,999.62
2023-03-06T00:30:22.071Z,999.61
2023-03-06T00:31:22.962Z,999.60
2023-03-06T00:32:22.024Z,999.58
2023-03-06T00:33:22.933Z,999.59
2023-03-06T00:34:21.959Z,999.52
2023-03-06T00:35:22.000Z,999.57
2023-03-06T00:36:21.945Z,999.54
2023-03-06T00:37:22.884Z,999.58
2023-03-06T00:38:21.888Z,999.58
2023-03-06T00:39:21.917Z,999.51
2023-03-06T00:40:21.930Z,999.48
2023-03-06T00:41:21.881Z,999.42
2023-03-06T00:42:21.896Z,999.51
2023-03-06T00:43:21.859Z,999.48
2023-03-06T00:44:21.830Z,999.45
2023-03-06T00:45:22.045Z,999.46
2023-03-06T00:46:21.825Z,999.52
2023-03-06T00:47:21.772Z,999.45
2023-03-06T00:48:21.756Z,999.43
2023-03-06T00:49:21.783Z,999.45
2023-03-06T00:50:22.838Z,999.47
2023-03-06T00:51:21.734Z,999.39
2023-03-06T00:52:21.741Z,999.44
2023-03-06T00:53:21.754Z,999.40
2023-03-06T00:54:21.677Z,999.34
2023-03-06T00:55:21.697Z,999.43
2023-03-06T00:56:22.774Z,999.41
2023-03-06T00:57:21.666Z,999.49
2023-03-06T00:58:21.642Z,999.48
2023-03-06T00:59:21.621Z,999.38
2023-03-06T01:00:21.612Z,999.51
2023-03-06T01:01:21.677Z,999.46
2023-03-06T01:02:21.761Z,999.40
2023-03-06T01:03:21.602Z,999.46
2023-03-06T01:04:21.615Z,999.31
2023-03-06T01:05:21.538Z,999.42
2023-03-06T01:06:21.540Z,999.38
2023-03-06T01:07:21.566Z,999.40
2023-03-06T01:08:21.531Z,999.32
2023-03-06T01:09:21.656Z,999.35
2023-03-06T01:10:21.596Z,999.36
2023-03-06T01:11:21.536Z,999.30
2023-03-06T01:12:23.570Z,999.37
2023-03-06T01:13:21.457Z,999.26
2023-03-06T01:14:21.480Z,999.28
2023-03-06T01:15:22.491Z,999.26
2023-03-06T01:16:22.413Z,999.29
2023-03-06T01:17:21.426Z,999.27
2023-03-06T01:18:21.414Z,999.28
2023-03-06T01:19:21.369Z,999.30
2023-03-06T01:20:21.436Z,999.29
2023-03-06T01:21:21.353Z,999.25
2023-03-06T01:22:22.322Z,999.26
2023-03-06T01:23:21.317Z,999.27
2023-03-06T01:24:21.316Z,999.22
2023-03-06T01:25:21.325Z,999.21
2023-03-06T01:26:21.280Z,999.22
2023-03-06T01:27:21.303Z,999.22
2023-03-06T01:28:21.290Z,999.19
2023-03-06T01:29:21.415Z,999.18
2023-03-06T01:30:21.268Z,999.19
2023-03-06T01:31:21.284Z,999.21
2023-03-06T01:32:21.270Z,999.15
2023-03-06T01:33:21.191Z,999.17
2023-03-06T01:34:21.307Z,999.20
2023-03-06T01:35:22.128Z,999.17
2023-03-06T01:36:21.207Z,999.15
2023-03-06T01:37:21.161Z,999.13
2023-03-06T01:38:21.160Z,999.16
2023-03-06T01:39:21.102Z,999.10
2023-03-06T01:40:21.195Z,999.12
2023-03-06T01:41:21.135Z,999.13
2023-03-06T01:42:21.102Z,999.13
2023-03-06T01:43:21.066Z,999.09
2023-03-06T01:44:21.078Z,999.15
2023-03-06T01:45:21.024Z,999.11
2023-03-06T01:46:21.122Z,999.11
2023-03-06T01:47:21.003Z,999.08
2023-03-06T01:48:21.004Z,999.08
2023-03-06T01:49:20.978Z,999.13
2023-03-06T01:50:20.998Z,999.06
2023-03-06T01:51:20.974Z,999.07
2023-03-06T01:52:21.095Z,999.11
2023-03-06T01:53:20.930Z,999.02
2023-03-06T01:54:20.974Z,999.06
2023-03-06T01:55:20.941Z,999.11
2023-03-06T01:56:20.918Z,999.01
2023-03-06T01:57:20.911Z,998.98
2023-03-06T01:58:20.868Z,999.03
2023-03-06T01:59:20.865Z,999.05
2023-03-06T02:00:21.757Z,999.09
2023-03-06T02:01:21.280Z,999.01
2023-03-06T02:02:20.965Z,999.04
2023-03-06T02:03:20.802Z,999.00
2023-03-06T02:04:20.839Z,999.02
2023-03-06T02:05:20.804Z,999.01
2023-03-06T02:06:20.813Z,998.98
2023-03-06T02:07:21.593Z,999.00
2023-03-06T02:08:20.819Z,998.93
2023-03-06T02:09:20.771Z,998.92
2023-03-06T02:10:20.750Z,998.95
2023-03-06T02:11:20.719Z,998.90
2023-03-06T02:12:20.723Z,998.93
2023-03-06T02:13:20.758Z,998.90
2023-03-06T02:14:21.942Z,998.91
2023-03-06T02:15:20.652Z,998.87
2023-03-06T02:16:20.666Z,998.92
2023-03-06T02:17:20.694Z,998.94
2023-03-06T02:18:20.676Z,998.91
2023-03-06T02:19:20.824Z,998.92
2023-03-06T02:20:20.781Z,998.87
2023-03-06T02:21:20.602Z,998.91
2023-03-06T02:22:20.592Z,998.84
2023-03-06T02:23:20.580Z,998.89
2023-03-06T02:24:20.535Z,998.83
2023-03-06T02:25:20.904Z,998.84
2023-03-06T02:26:20.563Z,998.85
2023-03-06T02:27:20.520Z,998.86
2023-03-06T02:28:20.495Z,998.89
2023-03-06T02:29:20.513Z,998.86
2023-03-06T02:30:20.467Z,998.82
2023-03-06T02:31:20.481Z,998.80
2023-03-06T02:32:21.293Z,998.82
2023-03-06T02:33:21.656Z,998.84
2023-03-06T02:34:21.421Z,998.77
2023-03-06T02:35:20.415Z,998.80
2023-03-06T02:36:20.499Z,998.79
2023-03-06T02:37:20.382Z,998.78
2023-03-06T02:38:20.419Z,998.77
2023-03-06T02:39:21.607Z,998.83
2023-03-06T02:40:20.358Z,998.84
2023-03-06T02:41:20.330Z,998.83
2023-03-06T02:42:20.348Z,998.81
2023-03-06T02:43:20.347Z,998.73
2023-03-06T02:44:20.333Z,998.72
2023-03-06T02:45:21.268Z,998.74
2023-03-06T02:46:20.478Z,998.72
2023-03-06T02:47:20.286Z,998.72
2023-03-06T02:48:20.239Z,998.76
2023-03-06T02:49:20.244Z,998.76
2023-03-06T02:50:20.275Z,998.66
2023-03-06T02:51:20.243Z,998.71
2023-03-06T02:52:20.203Z,998.69
2023-03-06T02:53:20.233Z,998.65
2023-03-06T02:54:20.205Z,998.70
2023-03-06T02:55:20.181Z,998.63
2023-03-06T02:56:20.180Z,998.65
2023-03-06T02:57:20.153Z,998.60
2023-03-06T02:58:20.354Z,998.59
2023-03-06T02:59:20.141Z,998.57
2023-03-06T03:00:20.086Z,998.58
2023-03-06T03:01:20.120Z,998.62
2023-03-06T03:02:20.076Z,998.63
2023-03-06T03:03:20.069Z,998.62
2023-03-06T03:04:21.289Z,998.57
2023-03-06T03:05:20.046Z,998.58
2023-03-06T03:06:20.007Z,998.52
2023-03-06T03:07:20.004Z,998.55
2023-03-06T03:08:20.005Z,998.53
2023-03-06T03:09:20.001Z,998.51
2023-03-06T03:10:19.970Z,998.55
2023-03-06T03:11:19.940Z,998.51
2023-03-06T03:12:19.945Z,998.47
2023-03-06T03:13:19.913Z,998.42
2023-03-06T03:14:20.781Z,998.46
2023-03-06T03:15:19.875Z,998.48
2023-03-06T03:16:19.969Z,998.45
2023-03-06T03:17:19.899Z,998.42
2023-03-06T03:18:19.852Z,998.48
2023-03-06T03:19:19.883Z,998.44
2023-03-06T03:20:19.884Z,998.41
2023-03-06T03:21:19.868Z,998.38
2023-03-06T03:22:21.048Z,998.40
2023-03-06T03:23:19.812Z,998.41
2023-03-06T03:24:19.877Z,998.37
2023-03-06T03:25:19.777Z,998.37
2023-03-06T03:26:19.778Z,998.33
2023-03-06T03:27:19.774Z,998.36
2023-03-06T03:28:19.747Z,998.33
2023-03-06T03:29:19.756Z,998.33
2023-03-06T03:30:20.794Z,998.37
2023-03-06T03:31:19.733Z,998.30
2023-03-06T03:32:19.919Z,998.32
2023-03-06T03:33:19.692Z,998.33
2023-03-06T03:34:19.655Z,998.29
2023-03-06T03:35:19.775Z,998.28
2023-03-06T03:36:19.669Z,998.33
2023-03-06T03:37:19.654Z,998.27
2023-03-06T03:38:19.660Z,998.26
2023-03-06T03:39:19.584Z,998.28
2023-03-06T03:40:19.622Z,998.26
2023-03-06T03:41:19.602Z,998.24
2023-03-06T03:42:19.601Z,998.25
2023-03-06T03:43:20.532Z,998.24
2023-03-06T03:44:19.570Z,998.26
2023-03-06T03:45:19.524Z,998.28
2023-03-06T03:46:19.553Z,998.25
2023-03-06T03:47:19.504Z,998.33
2023-03-06T03:48:19.510Z,998.39
2023-03-06T03:49:19.524Z,998.29
2023-03-06T03:50:19.537Z,998.29
2023-03-06T03:51:19.433Z,998.27
2023-03-06T03:52:19.454Z,998.23
2023-03-06T03:53:19.445Z,998.23
2023-03-06T03:54:20.416Z,998.23
2023-03-06T03:55:19.384Z,998.26
2023-03-06T03:56:20.308Z,998.24
2023-03-06T03:57:19.361Z,998.21
2023-03-06T03:58:19.372Z,998.18
2023-03-06T03:59:19.376Z,998.22
2023-03-06T04:00:19.345Z,998.18
2023-03-06T04:01:19.346Z,998.21
2023-03-06T04:02:19.527Z,998.22
2023-03-06T04:03:19.324Z,998.21
2023-03-06T04:04:19.268Z,998.24
2023-03-06T04:05:19.302Z,998.20
2023-03-06T04:06:19.289Z,998.24
2023-03-06T04:07:20.307Z,998.23
2023-03-06T04:08:19.349Z,998.22
2023-03-06T04:09:20.123Z,998.23
2023-03-06T04:10:19.314Z,998.18
2023-03-06T04:11:19.223Z,998.21
2023-03-06T04:12:19.251Z,998.15
2023-03-06T04:13:19.190Z,998.14
2023-03-06T04:14:19.201Z,998.12
2023-03-06T04:15:20.114Z,998.11
2023-03-06T04:16:19.244Z,998.10
2023-03-06T04:17:19.113Z,998.14
2023-03-06T04:18:19.082Z,998.15
2023-03-06T04:19:19.541Z,998.09
2023-03-06T04:20:19.451Z,998.10
2023-03-06T04:21:19.172Z,998.08
2023-03-06T04:22:19.419Z,998.03
2023-03-06T04:23:19.100Z,998.03
2023-03-06T04:24:19.100Z,998.03
2023-03-06T04:25:19.119Z,998.02
2023-03-06T04:26:19.322Z,998.00
2023-03-06T04:27:19.093Z,998.03
2023-03-06T04:28:19.099Z,997.99
2023-03-06T04:29:19.051Z,997.98
2023-03-06T04:30:18.956Z,997.97
2023-03-06T04:31:18.968Z,997.96
2023-03-06T04:32:21.318Z,997.99
2023-03-06T04:33:18.997Z,997.98
2023-03-06T04:34:18.941Z,997.94
2023-03-06T04:35:19.010Z,997.96
2023-03-06T04:36:18.920Z,997.91
2023-03-06T04:37:18.932Z,997.94
2023-03-06T04:38:18.858Z,997.94
2023-03-06T04:39:19.322Z,997.94
2023-03-06T04:40:19.200Z,997.95
2023-03-06T04:41:19.613Z,997.97
2023-03-06T04:42:18.841Z,997.99
2023-03-06T04:43:18.836Z,997.93
2023-03-06T04:44:18.907Z,997.97
2023-03-06T04:45:19.744Z,997.97
2023-03-06T04:46:18.797Z,997.96
2023-03-06T04:47:19.283Z,997.90
2023-03-06T04:48:18.923Z,997.93
2023-03-06T04:49:18.763Z,997.88
2023-03-06T04:50:18.767Z,997.88
2023-03-06T04:51:18.700Z,997.86
2023-03-06T04:52:18.781Z,997.87
2023-03-06T04:53:18.732Z,997.85
2023-03-06T04:54:19.128Z,997.84
2023-03-06T04:55:18.742Z,997.84
2023-03-06T04:56:18.649Z,997.81
2023-03-06T04:57:18.624Z,997.86
2023-03-06T04:58:18.679Z,997.88
2023-03-06T04:59:18.717Z,997.87
2023-03-06T05:00:18.563Z,997.84
2023-03-06T05:01:18.726Z,997.82
2023-03-06T05:02:18.727Z,997.83
2023-03-06T05:03:18.564Z,997.87
2023-03-06T05:04:18.527Z,997.88
2023-03-06T05:05:19.356Z,997.84
2023-03-06T05:06:19.615Z,997.82
2023-03-06T05:07:18.552Z,997.82
2023-03-06T05:08:18.509Z,997.82
2023-03-06T05:09:18.498Z,997.87
2023-03-06T05:10:18.493Z,997.84
2023-03-06T05:11:18.906Z,997.82
2023-03-06T05:12:18.920Z,997.86
2023-03-06T05:13:18.401Z,997.83
2023-03-06T05:14:18.573Z,997.83
2023-03-06T05:15:18.404Z,997.82
2023-03-06T05:16:18.477Z,997.81
2023-03-06T05:17:19.216Z,997.81
2023-03-06T05:18:18.337Z,997.81
2023-03-06T05:19:18.400Z,997.78
2023-03-06T05:20:18.416Z,997.81
2023-03-06T05:21:18.326Z,997.82
2023-03-06T05:22:18.309Z,997.83
2023-03-06T05:23:18.303Z,997.78
2023-03-06T05:24:18.529Z,997.80
2023-03-06T05:25:18.390Z,997.79
2023-03-06T05:26:18.526Z,997.80
2023-03-06T05:27:18.225Z,997.78
2023-03-06T05:28:18.301Z,997.76
2023-03-06T05:29:18.343Z,997.78
2023-03-06T05:30:19.649Z,997.78
2023-03-06T05:31:18.352Z,997.78
2023-03-06T05:32:18.343Z,997.75
2023-03-06T05:33:18.169Z,997.74
2023-03-06T05:34:18.292Z,997.72
2023-03-06T05:35:18.164Z,997.74
2023-03-06T05:36:18.268Z,997.76
2023-03-06T05:37:18.189Z,997.77
2023-03-06T05:38:18.145Z,997.75
2023-03-06T05:39:18.143Z,997.79
2023-03-06T05:40:18.246Z,997.83
2023-03-06T05:41:18.125Z,997.86
2023-03-06T05:42:18.091Z,997.84
2023-03-06T05:43:18.392Z,997.87
2023-03-06T05:44:19.196Z,997.86
2023-03-06T05:45:18.059Z,997.81
2023-03-06T05:46:18.185Z,997.83
2023-03-06T05:47:18.048Z,997.87
2023-03-06T05:48:17.975Z,997.83
2023-03-06T05:49:18.167Z,997.82
2023-03-06T05:50:18.029Z,997.84
2023-03-06T05:51:17.957Z,997.82
2023-03-06T05:52:17.922Z,997.81
2023-03-06T05:53:17.910Z,997.76
2023-03-06T05:54:18.729Z,997.78
2023-03-06T05:55:17.928Z,997.77
2023-03-06T05:56:18.035Z,997.75
2023-03-06T05:57:17.864Z,997.80
2023-03-06T05:58:17.861Z,997.75
2023-03-06T05:59:17.877Z,997.70
2023-03-06T06:00:17.837Z,997.74
2023-03-06T06:01:17.824Z,997.71
2023-03-06T06:02:17.945Z,997.69
2023-03-06T06:03:18.005Z,997.73
2023-03-06T06:04:17.777Z,997.68
2023-03-06T06:05:17.776Z,997.63
2023-03-06T06:06:17.782Z,997.69
2023-03-06T06:07:17.784Z,997.73
2023-03-06T06:08:17.805Z,997.65
2023-03-06T06:09:17.735Z,997.68
2023-03-06T06:10:17.786Z,997.73
2023-03-06T06:11:17.721Z,997.70
2023-03-06T06:12:17.668Z,997.72
2023-03-06T06:13:17.702Z,997.74
2023-03-06T06:14:17.687Z,997.76
2023-03-06T06:15:18.150Z,997.66
2023-03-06T06:16:17.650Z,997.73
2023-03-06T06:17:17.631Z,997.75
2023-03-06T06:18:17.597Z,997.65
2023-03-06T06:19:17.630Z,997.72
2023-03-06T06:20:17.567Z,997.69
2023-03-06T06:21:17.558Z,997.71
2023-03-06T06:22:18.606Z,997.72
2023-03-06T06:23:17.533Z,997.70
2023-03-06T06:24:17.548Z,997.72
2023-03-06T06:25:17.490Z,997.74
2023-03-06T06:26:17.521Z,997.69
2023-03-06T06:27:17.658Z,997.69
2023-03-06T06:28:17.550Z,997.68
2023-03-06T06:29:17.477Z,997.67
2023-03-06T06:30:17.465Z,997.64
2023-03-06T06:31:17.538Z,997.67
2023-03-06T06:32:17.497Z,997.66
2023-03-06T06:33:17.457Z,997.63
2023-03-06T06:34:18.482Z,997.66
2023-03-06T06:35:17.384Z,997.65
2023-03-06T06:36:17.399Z,997.61
2023-03-06T06:37:17.404Z,997.60
2023-03-06T06:38:17.431Z,997.64
2023-03-06T06:39:17.366Z,997.61
2023-03-06T06:40:17.329Z,997.62
2023-03-06T06:42:31.526Z,997.60
2023-03-06T06:43:18.354Z,997.65
2023-03-06T06:44:17.308Z,997.67
2023-03-06T06:45:17.466Z,997.63
2023-03-06T06:46:56.184Z,997.62
2023-03-06T06:47:23.096Z,997.65
2023-03-06T06:48:18.609Z,997.66
2023-03-06T06:49:18.072Z,997.63
2023-03-06T06:50:17.260Z,997.63
2023-03-06T06:51:17.251Z,997.64
2023-03-06T06:52:18.291Z,997.67
2023-03-06T06:53:18.196Z,997.61
2023-03-06T06:54:17.139Z,997.59
2023-03-06T06:55:17.227Z,997.60
2023-03-06T06:56:17.094Z,997.64
2023-03-06T06:57:17.125Z,997.64
2023-03-06T06:58:17.139Z,997.58
2023-03-06T06:59:17.690Z,997.64
2023-03-06T07:00:18.061Z,997.65
2023-03-06T07:01:17.082Z,997.65
2023-03-06T07:02:17.846Z,997.65
2023-03-06T07:03:17.100Z,997.60
2023-03-06T07:04:17.085Z,997.64
2023-03-06T07:05:17.081Z,997.64
2023-03-06T07:06:17.232Z,997.61
2023-03-06T07:07:17.008Z,997.61
2023-03-06T07:08:16.951Z,997.62
2023-03-06T07:09:17.003Z,997.63
2023-03-06T07:10:18.379Z,997.65
2023-03-06T07:11:16.911Z,997.66
2023-03-06T07:12:16.914Z,997.63
2023-03-06T07:13:16.876Z,997.62
2023-03-06T07:14:17.002Z,997.68
2023-03-06T07:15:16.877Z,997.69
2023-03-06T07:16:16.911Z,997.62
2023-03-06T07:17:16.907Z,997.67
2023-03-06T07:18:16.873Z,997.65
2023-03-06T07:19:17.751Z,997.69
2023-03-06T07:20:16.838Z,997.69
2023-03-06T07:21:16.802Z,997.65
2023-03-06T07:22:16.820Z,997.65
2023-03-06T07:23:16.811Z,997.67
2023-03-06T07:24:16.812Z,997.69
2023-03-06T07:25:16.862Z,997.65
2023-03-06T07:26:17.601Z,997.65
2023-03-06T07:27:16.738Z,997.63
2023-03-06T07:28:18.621Z,997.66
2023-03-06T07:29:16.755Z,997.63
2023-03-06T07:30:16.695Z,997.68
2023-03-06T07:31:17.692Z,997.62
2023-03-06T07:32:16.709Z,997.63
2023-03-06T07:33:16.645Z,997.65
2023-03-06T07:34:16.756Z,997.67
2023-03-06T07:35:29.392Z,997.65
2023-03-06T07:36:17.629Z,997.63
2023-03-06T07:37:16.586Z,997.57
2023-03-06T07:38:16.602Z,997.61
2023-03-06T07:39:17.366Z,997.62
2023-03-06T07:40:16.648Z,997.65
2023-03-06T07:41:16.617Z,997.63
2023-03-06T07:42:16.598Z,997.63
2023-03-06T07:43:19.452Z,997.68
2023-03-06T07:44:16.552Z,997.68
2023-03-06T07:45:16.534Z,997.62
2023-03-06T07:46:16.579Z,997.62
2023-03-06T07:47:16.497Z,997.62
2023-03-06T07:48:16.501Z,997.68
2023-03-06T07:49:16.457Z,997.67
2023-03-06T07:50:16.433Z,997.66
2023-03-06T07:51:16.962Z,997.66
2023-03-06T07:52:16.426Z,997.67
2023-03-06T07:53:16.430Z,997.70
2023-03-06T07:54:17.481Z,997.68
2023-03-06T07:55:16.443Z,997.73
2023-03-06T07:56:16.433Z,997.73
2023-03-06T07:57:16.386Z,997.73
2023-03-06T07:58:16.339Z,997.70
2023-03-06T07:59:17.544Z,997.72
2023-03-06T08:00:16.309Z,997.76
2023-03-06T08:01:16.313Z,997.71
2023-03-06T08:02:16.314Z,997.73
2023-03-06T08:03:16.362Z,997.72
2023-03-06T08:04:16.341Z,997.73
2023-03-06T08:05:16.283Z,997.69
2023-03-06T08:06:16.266Z,997.73
2023-03-06T08:07:16.289Z,997.72
2023-03-06T08:08:16.216Z,997.74
2023-03-06T08:09:16.597Z,997.71
2023-03-06T08:10:16.734Z,997.73
2023-03-06T08:11:16.343Z,997.75
2023-03-06T08:12:16.771Z,997.76
2023-03-06T08:13:16.163Z,997.76
2023-03-06T08:14:16.339Z,997.76
2023-03-06T08:15:16.154Z,997.82
2023-03-06T08:16:16.186Z,997.78
2023-03-06T08:17:16.111Z,997.80
2023-03-06T08:18:16.083Z,997.81
2023-03-06T08:19:16.083Z,997.83
2023-03-06T08:20:16.072Z,997.85
2023-03-06T08:21:16.072Z,997.86
2023-03-06T08:22:16.052Z,997.82
2023-03-06T08:23:16.111Z,997.82
2023-03-06T08:24:16.100Z,997.88
2023-03-06T08:25:16.060Z,997.91
2023-03-06T08:26:16.009Z,997.91
2023-03-06T08:27:16.079Z,997.92
2023-03-06T08:28:16.069Z,997.92
2023-03-06T08:29:16.027Z,997.92
2023-03-06T08:30:15.941Z,997.93
2023-03-06T08:31:16.017Z,997.97
2023-03-06T08:32:16.062Z,997.99
2023-03-06T08:33:15.880Z,997.94
2023-03-06T08:34:15.991Z,997.95
2023-03-06T08:35:15.938Z,998.01
2023-03-06T08:36:15.899Z,997.99
2023-03-06T08:37:15.940Z,997.98
2023-03-06T08:38:15.873Z,998.01
2023-03-06T08:39:15.962Z,997.99
2023-03-06T08:40:15.812Z,997.99
2023-03-06T08:41:15.821Z,998.00
2023-03-06T08:42:15.866Z,997.99
2023-03-06T08:43:15.812Z,997.93
2023-03-06T08:44:16.755Z,997.94
2023-03-06T08:45:15.773Z,997.94
2023-03-06T08:46:15.740Z,997.94
2023-03-06T08:47:15.794Z,997.94
2023-03-06T08:48:16.003Z,997.97
2023-03-06T08:49:15.741Z,997.95
2023-03-06T08:50:15.742Z,997.99
2023-03-06T08:51:15.674Z,997.98
2023-03-06T08:52:15.720Z,997.97
2023-03-06T08:53:15.681Z,998.04
2023-03-06T08:54:15.690Z,998.00
2023-03-06T08:55:15.675Z,998.04
2023-03-06T08:56:15.608Z,998.00
2023-03-06T08:57:15.630Z,998.04
2023-03-06T08:58:15.597Z,997.98
2023-03-06T08:59:15.588Z,998.00
2023-03-06T09:00:15.611Z,997.99
2023-03-06T09:01:15.572Z,998.02
2023-03-06T09:02:15.685Z,998.03
2023-03-06T09:03:15.687Z,998.06
2023-03-06T09:04:15.531Z,998.05
2023-03-06T09:05:15.498Z,998.04
2023-03-06T09:06:15.508Z,998.00
2023-03-06T09:07:15.515Z,997.99
2023-03-06T09:08:15.523Z,998.07
2023-03-06T09:09:15.484Z,998.02
2023-03-06T09:10:15.471Z,997.99
2023-03-06T09:11:15.417Z,998.05
2023-03-06T09:12:15.430Z,998.08
2023-03-06T09:13:15.493Z,998.05
2023-03-06T09:14:16.362Z,998.06
2023-03-06T09:15:15.453Z,998.08
2023-03-06T09:16:15.402Z,998.04
2023-03-06T09:17:15.397Z,998.09
2023-03-06T09:18:15.370Z,998.09
2023-03-06T09:19:15.316Z,998.06
2023-03-06T09:20:15.847Z,998.13
2023-03-06T09:21:15.316Z,998.12
2023-03-06T09:22:15.343Z,998.07
2023-03-06T09:23:15.326Z,998.09
2023-03-06T09:24:15.664Z,998.09
2023-03-06T09:25:15.296Z,998.13
2023-03-06T09:26:15.344Z,998.13
2023-03-06T09:27:15.244Z,998.09
2023-03-06T09:28:15.235Z,998.05
2023-03-06T09:29:15.193Z,998.10
2023-03-06T09:30:15.262Z,998.12
2023-03-06T09:31:15.319Z,998.13
2023-03-06T09:32:15.215Z,998.09
2023-03-06T09:33:15.220Z,998.10
2023-03-06T09:34:15.168Z,998.09
2023-03-06T09:35:15.161Z,998.12
2023-03-06T09:36:15.133Z,998.11
2023-03-06T09:37:16.303Z,998.14
2023-03-06T09:38:15.137Z,998.14
2023-03-06T09:39:15.122Z,998.12
2023-03-06T09:40:15.079Z,998.12
2023-03-06T09:41:15.133Z,998.15
2023-03-06T09:42:15.078Z,998.11
2023-03-06T09:43:15.029Z,998.12
2023-03-06T09:44:15.070Z,998.17
2023-03-06T09:45:15.035Z,998.12
2023-03-06T09:46:15.046Z,998.12
2023-03-06T09:47:15.011Z,998.14
2023-03-06T09:48:14.954Z,998.15
2023-03-06T09:49:14.961Z,998.13
2023-03-06T09:50:14.985Z,998.13
2023-03-06T09:51:14.960Z,998.13
2023-03-06T09:52:14.907Z,998.08
2023-03-06T09:53:14.890Z,998.07
2023-03-06T09:54:14.865Z,998.06
2023-03-06T09:55:14.931Z,998.08
2023-03-06T09:56:14.865Z,998.03
2023-03-06T09:57:14.875Z,998.04
2023-03-06T09:58:15.774Z,997.98
2023-03-06T09:59:14.814Z,997.98
2023-03-06T10:00:14.857Z,998.00
2023-03-06T10:01:15.115Z,998.03
2023-03-06T10:02:14.972Z,998.00
2023-03-06T10:03:14.897Z,998.02
2023-03-06T10:04:14.794Z,997.99
2023-03-06T10:05:14.905Z,998.02
2023-03-06T10:06:14.745Z,998.05
2023-03-06T10:07:14.728Z,998.08
2023-03-06T10:08:14.698Z,998.03
2023-03-06T10:09:14.728Z,998.02
2023-03-06T10:10:14.830Z,998.07
2023-03-06T10:11:14.720Z,998.04
2023-03-06T10:12:14.667Z,998.03
2023-03-06T10:13:14.658Z,998.07
2023-03-06T10:14:14.630Z,998.08
2023-03-06T10:15:14.625Z,998.00
2023-03-06T10:16:14.728Z,997.99
2023-03-06T10:17:15.512Z,997.99
2023-03-06T10:18:14.834Z,997.97
2023-03-06T10:19:14.574Z,997.99
2023-03-06T10:20:14.601Z,998.03
2023-03-06T10:21:19.327Z,998.05
2023-03-06T10:22:15.544Z,998.02
2023-03-06T10:23:15.447Z,998.02
2023-03-06T10:24:14.706Z,998.01
2023-03-06T10:25:14.484Z,997.97
2023-03-06T10:26:14.574Z,998.00
2023-03-06T10:27:14.522Z,998.01
2023-03-06T10:28:14.444Z,998.02
2023-03-06T10:29:14.469Z,998.04
2023-03-06T10:30:14.438Z,998.06
2023-03-06T10:31:14.459Z,998.04
2023-03-06T10:32:14.436Z,998.05
2023-03-06T10:33:14.379Z,998.04
2023-03-06T10:34:14.428Z,998.02
2023-03-06T10:35:14.421Z,997.99
2023-03-06T10:36:14.662Z,998.03
2023-03-06T10:37:14.339Z,997.99
2023-03-06T10:38:14.354Z,998.01
2023-03-06T10:39:14.351Z,998.00
2023-03-06T10:40:14.321Z,998.03
2023-03-06T10:41:14.326Z,998.06
2023-03-06T10:42:14.287Z,998.01
2023-03-06T10:43:14.291Z,998.03
2023-03-06T10:44:15.481Z,998.04
2023-03-06T10:45:14.230Z,998.05
2023-03-06T10:46:14.216Z,998.06
2023-03-06T10:47:14.225Z,998.04
2023-03-06T10:48:14.205Z,998.03
2023-03-06T10:49:14.999Z,998.06
2023-03-06T10:50:14.158Z,998.08
2023-03-06T10:51:18.630Z,998.06
2023-03-06T10:52:14.154Z,998.07
2023-03-06T10:53:14.135Z,998.06
2023-03-06T10:54:14.154Z,998.04
2023-03-06T10:55:14.133Z,998.01
2023-03-06T10:56:14.088Z,998.06
2023-03-06T10:57:14.077Z,998.07
2023-03-06T10:58:14.088Z,998.09
2023-03-06T10:59:14.098Z,998.09
2023-03-06T11:00:14.035Z,998.11
2023-03-06T11:01:14.080Z,998.10
2023-03-06T11:02:14.041Z,998.11
2023-03-06T11:03:13.999Z,998.08
2023-03-06T11:04:14.101Z,998.08
2023-03-06T11:05:14.012Z,998.08
2023-03-06T11:06:13.967Z,998.05
2023-03-06T11:07:14.809Z,998.09
2023-03-06T11:08:14.444Z,998.06
2023-03-06T11:09:14.028Z,998.08
2023-03-06T11:10:13.951Z,998.08
2023-03-06T11:11:13.881Z,998.11
2023-03-06T11:12:13.873Z,998.14
2023-03-06T11:13:13.883Z,998.16
2023-03-06T11:14:13.893Z,998.17
2023-03-06T11:15:13.884Z,998.24
2023-03-06T11:16:13.860Z,998.21
2023-03-06T11:17:13.826Z,998.23
2023-03-06T11:18:13.811Z,998.23
2023-03-06T11:19:13.814Z,998.23
2023-03-06T11:20:14.186Z,998.25
2023-03-06T11:21:14.186Z,998.25
2023-03-06T11:22:13.755Z,998.27
2023-03-06T11:23:13.775Z,998.23
2023-03-06T11:24:13.815Z,998.22
2023-03-06T11:25:13.775Z,998.27
2023-03-06T11:26:13.710Z,998.25
2023-03-06T11:27:14.933Z,998.27
2023-03-06T11:28:13.692Z,998.26
2023-03-06T11:29:13.699Z,998.27
2023-03-06T11:30:14.642Z,998.23
2023-03-06T11:31:13.748Z,998.22
2023-03-06T11:32:13.719Z,998.20
2023-03-06T11:33:13.635Z,998.18
2023-03-06T11:34:13.632Z,998.15
2023-03-06T11:35:13.688Z,998.17
2023-03-06T11:36:13.591Z,998.19
2023-03-06T11:37:13.602Z,998.12
2023-03-06T11:38:13.577Z,998.15
2023-03-06T11:39:15.491Z,998.15
2023-03-06T11:40:13.566Z,998.10
2023-03-06T11:41:13.540Z,998.11
2023-03-06T11:42:13.564Z,998.10
2023-03-06T11:43:13.500Z,998.14
2023-03-06T11:44:13.470Z,998.13
2023-03-06T11:45:13.493Z,998.12
2023-03-06T11:46:13.533Z,998.16
2023-03-06T11:47:13.625Z,998.21
2023-03-06T11:48:13.416Z,998.21
2023-03-06T11:49:13.413Z,998.16
2023-03-06T11:50:13.446Z,998.20
2023-03-06T11:51:13.486Z,998.20
2023-03-06T11:52:13.374Z,998.21
2023-03-06T11:53:13.340Z,998.19
2023-03-06T11:54:13.377Z,998.14
2023-03-06T11:55:13.367Z,998.11
2023-03-06T11:56:13.381Z,998.10
2023-03-06T11:57:13.318Z,998.13
2023-03-06T11:58:13.288Z,998.12
2023-03-06T11:59:13.322Z,998.10
2023-03-06T12:00:13.298Z,998.12
2023-03-06T12:01:13.283Z,998.10
2023-03-06T12:02:13.349Z,998.08
2023-03-06T12:03:13.287Z,998.06
2023-03-06T12:04:13.209Z,998.08
2023-03-06T12:05:13.284Z,998.06
2023-03-06T12:06:13.199Z,998.06
2023-03-06T12:07:13.320Z,998.06
2023-03-06T12:08:13.200Z,998.07
2023-03-06T12:09:13.161Z,998.01
2023-03-06T12:10:13.155Z,997.99
2023-03-06T12:11:14.296Z,998.02
2023-03-06T12:12:13.147Z,997.96
2023-03-06T12:13:13.148Z,997.95
2023-03-06T12:14:13.081Z,997.91
2023-03-06T12:15:13.079Z,997.88
2023-03-06T12:16:13.089Z,997.90
2023-03-06T12:17:13.139Z,997.85
2023-03-06T12:18:13.060Z,997.84
2023-03-06T12:19:13.081Z,997.80
2023-03-06T12:20:13.042Z,997.84
2023-03-06T12:21:13.023Z,997.85
2023-03-06T12:22:12.998Z,997.81
2023-03-06T12:23:15.641Z,997.80
2023-03-06T12:24:13.859Z,997.76
2023-03-06T12:25:13.322Z,997.80
2023-03-06T12:26:12.973Z,997.82
2023-03-06T12:27:12.925Z,997.79
2023-03-06T12:28:12.940Z,997.76
2023-03-06T12:29:12.920Z,997.77